createdAt,value
2022-10-22T00:01:24.662Z,100858.47
2022-10-22T00:03:46.831Z,100864.34
2022-10-22T00:06:09.166Z,100869.44
2022-10-22T00:08:31.240Z,100861.84
2022-10-22T00:10:53.075Z,100866.13
2022-10-22T00:13:15.050Z,100870.75
2022-10-22T00:15:37.055Z,100873.78
2022-10-22T00:17:59.079Z,100868.50
2022-10-22T00:20:20.976Z,100866.44
2022-10-22T00:22:42.878Z,100865.19
2022-10-22T00:25:05.048Z,100868.28
2022-10-22T00:27:26.819Z,100862.28
2022-10-22T00:29:48.674Z,100858.72
2022-10-22T00:32:10.603Z,100863.81
2022-10-22T00:34:33.255Z,100865.78
2022-10-22T00:36:55.191Z,100865.31
2022-10-22T00:39:21.006Z,100863.25
2022-10-22T00:41:45.070Z,100864.75
2022-10-22T00:44:07.119Z,100864.75
2022-10-22T00:46:31.014Z,100864.75
2022-10-22T00:48:56.387Z,100868.00
2022-10-22T00:51:21.801Z,100862.09
2022-10-22T00:53:56.911Z,100864.19
2022-10-22T00:56:20.230Z,100872.47
2022-10-22T00:58:49.257Z,100869.34
2022-10-22T01:01:18.233Z,100873.28
2022-10-22T01:03:40.030Z,100874.78
2022-10-22T01:06:05.772Z,100868.78
2022-10-22T01:08:56.981Z,100873.84
2022-10-22T01:11:34.575Z,100876.50
2022-10-22T01:14:44.442Z,100875.34
2022-10-22T01:17:31.743Z,100872.81
2022-10-22T01:20:32.556Z,100871.56
2022-10-22T01:23:28.284Z,100864.06
2022-10-22T01:26:37.320Z,100858.88
2022-10-22T01:29:11.178Z,100868.34
2022-10-22T01:31:40.176Z,100880.22
2022-10-22T01:34:04.369Z,100877.81
2022-10-22T01:36:29.999Z,100869.03
2022-10-22T01:38:53.379Z,100869.75
2022-10-22T01:41:15.717Z,100863.41
2022-10-22T01:43:37.534Z,100856.59
2022-10-22T01:46:03.620Z,100863.75
2022-10-22T01:48:56.798Z,100856.59
2022-10-22T01:51:43.712Z,100853.75
2022-10-22T01:54:55.049Z,100855.25
2022-10-22T01:58:19.688Z,100851.56
2022-10-22T02:00:57.993Z,100854.91
2022-10-22T02:03:34.325Z,100852.50
2022-10-22T02:06:06.638Z,100854.09
2022-10-22T02:08:33.828Z,100854.09
2022-10-22T02:10:58.660Z,100855.28
2022-10-22T02:13:31.494Z,100849.75
2022-10-22T02:15:56.981Z,100849.75
2022-10-22T02:18:26.055Z,100854.09
2022-10-22T02:20:49.086Z,100850.22
2022-10-22T02:23:12.244Z,100854.56
2022-10-22T02:25:40.400Z,100856.16
2022-10-22T02:28:27.253Z,100849.50
2022-10-22T02:30:55.253Z,100849.50
2022-10-22T02:33:30.722Z,100851.91
2022-10-22T02:35:55.412Z,100853.53
2022-10-22T02:38:19.550Z,100854.31
2022-10-22T02:40:42.368Z,100855.13
2022-10-22T02:43:06.176Z,100847.19
2022-10-22T02:45:28.017Z,100851.09
2022-10-22T02:47:50.114Z,100853.53
2022-10-22T02:50:11.976Z,100848.34
2022-10-22T02:52:33.813Z,100851.09
2022-10-22T02:54:55.584Z,100850.31
2022-10-22T02:57:17.479Z,100851.09
2022-10-22T02:59:39.267Z,100853.41
2022-10-22T03:02:01.099Z,100856.16
2022-10-22T03:04:22.890Z,100851.00
2022-10-22T03:06:44.891Z,100855.75
2022-10-22T03:09:06.747Z,100854.91
2022-10-22T03:11:28.689Z,100866.66
2022-10-22T03:13:50.428Z,100865.06
2022-10-22T03:16:12.266Z,100867.38
2022-10-22T03:18:34.168Z,100862.19
2022-10-22T03:21:39.046Z,100864.16
2022-10-22T03:24:08.405Z,100856.09
2022-10-22T03:26:30.407Z,100859.56
2022-10-22T03:28:52.375Z,100868.19
2022-10-22T03:31:14.945Z,100864.63
2022-10-22T03:33:36.718Z,100875.56
2022-10-22T03:35:59.501Z,100879.03
2022-10-22T03:38:21.447Z,100882.13
2022-10-22T03:40:46.131Z,100882.50
2022-10-22T03:43:08.383Z,100891.13
2022-10-22T03:45:30.180Z,100885.13
2022-10-22T03:47:51.971Z,100879.13
2022-10-22T03:50:13.723Z,100885.81
2022-10-22T03:52:40.512Z,100894.91
2022-10-22T03:55:02.265Z,100892.16
2022-10-22T03:57:24.085Z,100895.28
2022-10-22T03:59:47.702Z,100896.41
2022-10-22T04:02:11.278Z,100895.13
2022-10-22T04:04:33.437Z,100902.97
2022-10-22T04:06:55.341Z,100902.16
2022-10-22T04:09:17.149Z,100909.66
2022-10-22T04:11:38.966Z,100904.22
2022-10-22T04:14:00.791Z,100902.72
2022-10-22T04:16:26.161Z,100905.50
2022-10-22T04:18:51.231Z,100908.25
2022-10-22T04:21:16.318Z,100913.00
2022-10-22T04:23:38.764Z,100910.59
2022-10-22T04:26:03.904Z,100907.00
2022-10-22T04:28:26.185Z,100916.13
2022-10-22T04:30:47.949Z,100917.72
2022-10-22T04:33:09.726Z,100913.00
2022-10-22T04:35:31.523Z,100921.75
2022-10-22T04:37:54.984Z,100923.81
2022-10-22T04:40:16.893Z,100912.53
2022-10-22T04:42:38.683Z,100911.84
2022-10-22T04:45:00.540Z,100911.97
2022-10-22T04:47:22.448Z,100918.41
2022-10-22T04:49:44.186Z,100919.34
2022-10-22T04:52:05.936Z,100917.84
2022-10-22T04:54:30.551Z,100915.09
2022-10-22T04:56:54.937Z,100915.50
2022-10-22T04:59:16.771Z,100921.50
2022-10-22T05:01:43.407Z,100916.91
2022-10-22T05:04:07.555Z,100926.47
2022-10-22T05:06:32.320Z,100920.94
2022-10-22T05:08:58.322Z,100930.03
2022-10-22T05:11:24.531Z,100930.03
2022-10-22T05:13:47.530Z,100931.28
2022-10-22T05:16:11.198Z,100935.69
2022-10-22T05:18:42.918Z,100931.44
2022-10-22T05:21:09.611Z,100927.81
2022-10-22T05:23:31.700Z,100928.19
2022-10-22T05:25:53.464Z,100925.91
2022-10-22T05:28:15.236Z,100936.59
2022-10-22T05:30:37.020Z,100932.56
2022-10-22T05:32:58.850Z,100939.34
2022-10-22T05:35:20.610Z,100929.56
2022-10-22T05:37:42.786Z,100936.34
2022-10-22T05:40:19.130Z,100930.16
2022-10-22T05:42:47.891Z,100937.28
2022-10-22T05:45:10.065Z,100936.94
2022-10-22T05:47:31.935Z,100936.56
2022-10-22T05:49:53.699Z,100936.69
2022-10-22T05:52:15.509Z,100947.53
2022-10-22T05:54:37.299Z,100948.88
2022-10-22T05:56:59.225Z,100944.63
2022-10-22T05:59:21.140Z,100956.63
2022-10-22T06:01:43.100Z,100959.16
2022-10-22T06:04:10.009Z,100956.13
2022-10-22T06:06:45.757Z,100965.81
2022-10-22T06:09:20.179Z,100969.84
2022-10-22T06:11:42.111Z,100969.94
2022-10-22T06:14:04.906Z,100963.72
2022-10-22T06:16:30.064Z,100975.25
2022-10-22T06:18:51.981Z,100974.56
2022-10-22T06:21:16.247Z,100975.00
2022-10-22T06:23:39.476Z,100975.00
2022-10-22T06:26:02.723Z,100980.97
2022-10-22T06:30:51.364Z,100990.22
2022-10-22T06:33:13.188Z,100996.53
2022-10-22T06:35:35.459Z,100999.78
2022-10-22T06:37:57.246Z,101009.72
2022-10-22T06:40:19.383Z,101018.03
2022-10-22T06:42:41.565Z,101011.66
2022-10-22T06:45:04.098Z,101014.41
2022-10-22T06:47:26.007Z,101022.72
2022-10-22T06:49:49.933Z,101027.13
2022-10-22T06:52:12.947Z,101034.63
2022-10-22T06:54:34.893Z,101034.25
2022-10-22T06:56:56.764Z,101037.97
2022-10-22T06:59:18.814Z,101044.06
2022-10-22T07:01:40.817Z,101046.56
2022-10-22T07:04:03.240Z,101045.53
2022-10-22T07:06:27.382Z,101049.66
2022-10-22T07:08:49.753Z,101054.50
2022-10-22T07:11:18.779Z,101056.09
2022-10-22T07:13:41.823Z,101051.72
2022-10-22T07:16:05.793Z,101060.97
2022-10-22T07:18:27.881Z,101059.78
2022-10-22T07:20:50.728Z,101061.03
2022-10-22T07:23:12.710Z,101069.47
2022-10-22T07:25:34.605Z,101070.38
2022-10-22T07:27:56.565Z,101070.47
2022-10-22T07:30:18.584Z,101068.59
2022-10-22T07:32:40.632Z,101074.97
2022-10-22T07:35:02.527Z,101080.97
2022-10-22T07:37:24.363Z,101091.22
2022-10-22T07:39:46.737Z,101097.69
2022-10-22T07:42:08.955Z,101093.41
2022-10-22T07:44:30.744Z,101094.31
2022-10-22T07:46:52.652Z,101097.63
2022-10-22T07:49:14.490Z,101102.59
2022-10-22T07:51:36.397Z,101100.28
2022-10-22T07:53:58.289Z,101107.53
2022-10-22T07:56:20.201Z,101103.28
2022-10-22T07:58:42.399Z,101110.16
2022-10-22T08:01:05.928Z,101121.91
2022-10-22T08:03:29.777Z,101120.66
2022-10-22T08:05:52.135Z,101116.66
2022-10-22T08:08:16.209Z,101112.09
2022-10-22T08:10:38.564Z,101121.84
2022-10-22T08:13:00.662Z,101118.97
2022-10-22T08:15:23.472Z,101115.66
2022-10-22T08:17:45.265Z,101132.22
2022-10-22T08:20:07.981Z,101130.59
2022-10-22T08:22:29.851Z,101142.41
2022-10-22T08:24:51.614Z,101131.91
2022-10-22T08:27:13.514Z,101134.94
2022-10-22T08:29:35.399Z,101125.22
2022-10-22T08:31:57.476Z,101130.56
2022-10-22T08:34:19.763Z,101135.91
2022-10-22T08:36:41.816Z,101142.41
2022-10-22T08:39:03.638Z,101135.47
2022-10-22T08:41:26.420Z,101134.06
2022-10-22T08:44:15.545Z,101141.81
2022-10-22T08:46:52.644Z,101150.66
2022-10-22T08:49:24.608Z,101142.75
2022-10-22T08:51:46.755Z,101158.28
2022-10-22T08:54:32.005Z,101158.88
2022-10-22T08:57:09.804Z,101159.31
2022-10-22T08:59:56.462Z,101163.72
2022-10-22T09:02:56.709Z,101179.63
2022-10-22T09:05:33.412Z,101179.63
2022-10-22T09:07:58.071Z,101183.66
2022-10-22T09:10:27.167Z,101177.25
2022-10-22T09:12:49.387Z,101181.22
2022-10-22T09:15:16.905Z,101184.81
2022-10-22T09:18:07.712Z,101189.13
2022-10-22T09:20:56.940Z,101189.50
2022-10-22T09:23:30.532Z,101200.22
2022-10-22T09:25:53.120Z,101200.22
2022-10-22T09:28:15.155Z,101197.84
2022-10-22T09:30:40.035Z,101191.91
2022-10-22T09:33:19.187Z,101200.34
2022-10-22T09:36:03.434Z,101204.38
2022-10-22T09:38:30.392Z,101209.13
2022-10-22T09:40:55.806Z,101207.50
2022-10-22T09:43:18.361Z,101213.09
2022-10-22T09:45:41.529Z,101212.63
2022-10-22T09:48:28.471Z,101217.75
2022-10-22T09:51:02.088Z,101225.63
2022-10-22T09:53:30.768Z,101228.31
2022-10-22T09:55:57.542Z,101227.47
2022-10-22T09:58:19.889Z,101239.00
2022-10-22T10:00:51.565Z,101243.72
2022-10-22T10:03:24.133Z,101250.47
2022-10-22T10:05:54.986Z,101255.69
2022-10-22T10:08:18.693Z,101262.06
2022-10-22T10:11:02.095Z,101262.16
2022-10-22T10:13:36.058Z,101259.44
2022-10-22T10:16:15.827Z,101269.50
2022-10-22T10:19:07.131Z,101273.56
2022-10-22T10:21:55.359Z,101266.47
2022-10-22T10:24:54.062Z,101276.94
2022-10-22T10:27:40.616Z,101272.28
2022-10-22T10:30:26.070Z,101281.47
2022-10-22T10:33:09.010Z,101281.19
2022-10-22T10:35:55.214Z,101278.53
2022-10-22T10:38:51.836Z,101285.44
2022-10-22T10:41:23.614Z,101289.50
2022-10-22T10:44:13.608Z,101293.56
2022-10-22T10:47:13.943Z,101295.59
2022-10-22T10:49:36.937Z,101296.03
2022-10-22T10:52:17.488Z,101291.78
2022-10-22T10:54:45.294Z,101292.78
2022-10-22T10:57:39.399Z,101293.28
2022-10-22T11:00:11.883Z,101288.25
2022-10-22T11:03:38.567Z,101289.56
2022-10-22T11:06:07.714Z,101289.69
2022-10-22T11:08:38.934Z,101291.50
2022-10-22T11:11:23.147Z,101295.75
2022-10-22T11:14:10.863Z,101290.44
2022-10-22T11:17:01.855Z,101295.44
2022-10-22T11:19:46.516Z,101294.78
2022-10-22T11:22:26.981Z,101293.38
2022-10-22T11:25:13.554Z,101291.06
2022-10-22T11:28:09.120Z,101299.19
2022-10-22T11:30:37.030Z,101301.19
2022-10-22T11:33:05.797Z,101292.41
2022-10-22T11:35:34.062Z,101299.63
2022-10-22T11:37:57.921Z,101294.59
2022-10-22T11:40:36.084Z,101297.81
2022-10-22T11:43:05.507Z,101296.31
2022-10-22T11:45:34.195Z,101294.75
2022-10-22T11:48:10.048Z,101295.91
2022-10-22T11:51:00.740Z,101305.44
2022-10-22T11:53:25.600Z,101296.56
2022-10-22T11:55:51.922Z,101302.09
2022-10-22T11:58:45.038Z,101298.06
2022-10-22T12:01:09.985Z,101299.22
2022-10-22T12:03:31.714Z,101291.63
2022-10-22T12:06:28.144Z,101286.66
2022-10-22T12:08:50.091Z,101287.59
2022-10-22T12:11:11.935Z,101293.25
2022-10-22T12:13:53.550Z,101294.84
2022-10-22T12:16:23.570Z,101291.56
2022-10-22T12:19:05.111Z,101291.00
2022-10-22T12:21:27.105Z,101300.06
2022-10-22T12:23:51.171Z,101297.56
2022-10-22T12:26:31.825Z,101300.69
2022-10-22T12:29:00.045Z,101300.25
2022-10-22T12:31:21.875Z,101285.94
2022-10-22T12:33:44.204Z,101291.19
2022-10-22T12:36:06.495Z,101292.13
2022-10-22T12:38:28.300Z,101296.13
2022-10-22T12:40:55.397Z,101300.53
2022-10-22T12:43:25.593Z,101306.88
2022-10-22T12:45:50.523Z,101306.88
2022-10-22T12:48:27.010Z,101303.28
2022-10-22T12:50:54.439Z,101312.41
2022-10-22T12:53:24.060Z,101310.38
2022-10-22T12:55:49.852Z,101307.13
2022-10-22T12:58:20.140Z,101310.69
2022-10-22T13:00:41.976Z,101306.22
2022-10-22T13:03:07.268Z,101306.59
2022-10-22T13:05:39.118Z,101314.50
2022-10-22T13:08:16.922Z,101310.19
2022-10-22T13:10:42.202Z,101303.84
2022-10-22T13:13:06.990Z,101314.31
2022-10-22T13:15:31.521Z,101309.69
2022-10-22T13:18:21.316Z,101307.53
2022-10-22T13:21:03.155Z,101296.66
2022-10-22T13:23:28.220Z,101293.59
2022-10-22T13:26:16.743Z,101298.88
2022-10-22T13:28:38.974Z,101299.31
2022-10-22T13:31:09.989Z,101304.06
2022-10-22T13:33:42.504Z,101300.81
2022-10-22T13:36:05.679Z,101302.53
2022-10-22T13:38:28.640Z,101298.56
2022-10-22T13:40:50.974Z,101299.31
2022-10-22T13:43:12.826Z,101300.06
2022-10-22T13:45:34.795Z,101302.41
2022-10-22T13:47:57.108Z,101288.31
2022-10-22T13:50:21.005Z,101302.97
2022-10-22T13:52:59.093Z,101297.72
2022-10-22T13:55:25.641Z,101304.53
2022-10-22T13:57:49.556Z,101299.41
2022-10-22T14:00:19.151Z,101293.16
2022-10-22T14:02:41.813Z,101303.97
2022-10-22T14:05:08.582Z,101297.63
2022-10-22T14:07:30.469Z,101300.09
2022-10-22T14:09:52.265Z,101302.16
2022-10-22T14:12:17.184Z,101307.34
2022-10-22T14:14:38.976Z,101299.38
2022-10-22T14:17:01.534Z,101298.94
2022-10-22T14:19:23.525Z,101304.91
2022-10-22T14:21:45.598Z,101294.84
2022-10-22T14:24:13.386Z,101302.44
2022-10-22T14:26:35.658Z,101290.00
2022-10-22T14:29:13.903Z,101299.56
2022-10-22T14:31:42.146Z,101299.47
2022-10-22T14:34:04.315Z,101310.16
2022-10-22T14:36:26.359Z,101306.47
2022-10-22T14:38:49.102Z,101308.41
2022-10-22T14:41:22.000Z,101305.09
2022-10-22T14:43:43.776Z,101304.28
2022-10-22T14:46:05.686Z,101307.44
2022-10-22T14:48:28.107Z,101310.59
2022-10-22T14:50:50.483Z,101318.56
2022-10-22T14:53:14.272Z,101320.16
2022-10-22T14:55:36.711Z,101321.03
2022-10-22T14:57:58.475Z,101318.66
2022-10-22T15:00:21.890Z,101318.66
2022-10-22T15:02:44.303Z,101331.44
2022-10-22T15:05:07.399Z,101327.44
2022-10-22T15:07:29.323Z,101329.50
2022-10-22T15:09:51.345Z,101329.91
2022-10-22T15:12:13.253Z,101335.09
2022-10-22T15:14:35.088Z,101337.44
2022-10-22T15:16:57.843Z,101345.34
2022-10-22T15:19:19.667Z,101346.88
2022-10-22T15:24:04.783Z,101348.34
2022-10-22T15:26:27.837Z,101351.47
2022-10-22T15:28:49.577Z,101352.59
2022-10-22T15:31:14.687Z,101353.28
2022-10-22T15:33:36.504Z,101357.19
2022-10-22T15:35:58.631Z,101360.28
2022-10-22T15:38:20.734Z,101355.00
2022-10-22T15:40:42.778Z,101351.31
2022-10-22T15:43:04.696Z,101358.81
2022-10-22T15:45:26.639Z,101359.94
2022-10-22T15:47:49.182Z,101363.78
2022-10-22T15:50:11.660Z,101362.84
2022-10-22T15:52:33.495Z,101360.34
2022-10-22T15:54:55.747Z,101361.00
2022-10-22T15:57:17.656Z,101352.53
2022-10-22T15:59:39.662Z,101354.81
2022-10-22T16:02:01.443Z,101352.34
2022-10-22T16:04:23.339Z,101348.63
2022-10-22T16:06:49.593Z,101346.94
2022-10-22T16:09:19.924Z,101347.22
2022-10-22T16:11:42.299Z,101351.47
2022-10-22T16:14:05.833Z,101347.41
2022-10-22T16:16:34.265Z,101348.88
2022-10-22T16:18:56.392Z,101353.06
2022-10-22T16:21:20.853Z,101351.75
2022-10-22T16:23:43.167Z,101356.34
2022-10-22T16:26:05.108Z,101352.19
2022-10-22T16:28:26.934Z,101352.06
2022-10-22T16:30:48.827Z,101351.53
2022-10-22T16:33:11.741Z,101356.25
2022-10-22T16:35:33.748Z,101359.28
2022-10-22T16:37:55.693Z,101359.97
2022-10-22T16:40:17.650Z,101365.00
2022-10-22T16:42:39.517Z,101364.81
2022-10-22T16:45:01.466Z,101368.72
2022-10-22T16:47:23.275Z,101375.69
2022-10-22T16:49:45.119Z,101385.06
2022-10-22T16:52:07.075Z,101390.00
2022-10-22T16:54:29.119Z,101389.03
2022-10-22T16:56:51.191Z,101397.94
2022-10-22T16:59:12.952Z,101384.19
2022-10-22T17:01:39.453Z,101390.63
2022-10-22T17:04:02.505Z,101392.78
2022-10-22T17:06:25.108Z,101393.78
2022-10-22T17:08:47.832Z,101386.41
2022-10-22T17:11:17.048Z,101394.91
2022-10-22T17:13:41.788Z,101395.97
2022-10-22T17:16:11.118Z,101398.66
2022-10-22T17:18:35.747Z,101394.53
2022-10-22T17:20:58.589Z,101396.25
2022-10-22T17:23:20.476Z,101398.03
2022-10-22T17:25:44.659Z,101400.59
2022-10-22T17:28:06.568Z,101400.88
2022-10-22T17:30:28.852Z,101397.16
2022-10-22T17:32:50.628Z,101397.53
2022-10-22T17:35:16.669Z,101403.78
2022-10-22T17:37:38.998Z,101402.06
2022-10-22T17:40:01.997Z,101403.94
2022-10-22T17:42:23.901Z,101408.09
2022-10-22T17:44:45.799Z,101410.78
2022-10-22T17:47:07.593Z,101403.97
2022-10-22T17:49:29.427Z,101402.25
2022-10-22T17:51:51.765Z,101412.06
2022-10-22T17:54:14.715Z,101410.34
2022-10-22T17:56:37.557Z,101402.72
2022-10-22T17:59:02.299Z,101405.38
2022-10-22T18:01:29.022Z,101407.22
2022-10-22T18:03:53.193Z,101411.88
2022-10-22T18:06:15.599Z,101403.78
2022-10-22T18:08:37.670Z,101409.22
2022-10-22T18:11:00.412Z,101421.00
2022-10-22T18:13:22.217Z,101425.63
2022-10-22T18:15:43.994Z,101436.63
2022-10-22T18:18:06.025Z,101427.38
2022-10-22T18:20:27.855Z,101423.66
2022-10-22T18:22:49.634Z,101419.97
2022-10-22T18:25:12.292Z,101424.88
2022-10-22T18:27:34.236Z,101414.88
2022-10-22T18:29:55.986Z,101423.03
2022-10-22T18:32:17.822Z,101425.34
2022-10-22T18:34:39.834Z,101426.84
2022-10-22T18:37:01.745Z,101429.16
2022-10-22T18:39:24.217Z,101422.34
2022-10-22T18:41:46.215Z,101419.47
2022-10-22T18:44:08.404Z,101421.75
2022-10-22T18:46:34.878Z,101421.28
2022-10-22T18:48:58.654Z,101436.66
2022-10-22T18:51:20.828Z,101433.75
2022-10-22T18:53:53.589Z,101433.63
2022-10-22T18:56:25.264Z,101437.91
2022-10-22T18:58:49.503Z,101440.56
2022-10-22T19:01:26.153Z,101435.69
2022-10-22T19:03:49.090Z,101435.56
2022-10-22T19:06:12.605Z,101422.41
2022-10-22T19:08:36.633Z,101427.81
2022-10-22T19:10:58.694Z,101421.78
2022-10-22T19:13:23.213Z,101420.50
2022-10-22T19:15:44.976Z,101420.41
2022-10-22T19:18:07.279Z,101419.47
2022-10-22T19:20:29.197Z,101416.22
2022-10-22T19:22:51.041Z,101413.81
2022-10-22T19:25:13.037Z,101407.00
2022-10-22T19:27:36.526Z,101405.03
2022-10-22T19:29:58.323Z,101392.66
2022-10-22T19:32:20.279Z,101395.44
2022-10-22T19:34:43.203Z,101396.25
2022-10-22T19:37:05.006Z,101403.38
2022-10-22T19:39:26.835Z,101399.47
2022-10-22T19:41:48.659Z,101407.47
2022-10-22T19:44:11.027Z,101407.47
2022-10-22T19:46:33.114Z,101403.53
2022-10-22T19:48:57.328Z,101414.59
2022-10-22T19:51:22.664Z,101414.59
2022-10-22T19:53:45.170Z,101414.13
2022-10-22T19:56:11.657Z,101401.78
2022-10-22T19:58:34.578Z,101403.59
2022-10-22T20:00:56.516Z,101402.31
2022-10-22T20:03:20.111Z,101392.41
2022-10-22T20:05:42.794Z,101392.75
2022-10-22T20:08:04.931Z,101394.72
2022-10-22T20:10:26.856Z,101401.41
2022-10-22T20:12:48.676Z,101401.06
2022-10-22T20:15:10.552Z,101399.09
2022-10-22T20:17:32.332Z,101398.28
2022-10-22T20:19:54.079Z,101399.09
2022-10-22T20:22:17.993Z,101409.03
2022-10-22T20:24:40.977Z,101417.00
2022-10-22T20:27:02.851Z,101414.22
2022-10-22T20:29:24.765Z,101409.50
2022-10-22T20:31:47.729Z,101417.00
2022-10-22T20:34:09.747Z,101414.56
2022-10-22T20:36:32.570Z,101420.56
2022-10-22T20:39:06.157Z,101417.44
2022-10-22T20:41:28.277Z,101412.28
2022-10-22T20:43:52.087Z,101412.75
2022-10-22T20:46:31.914Z,101413.53
2022-10-22T20:48:59.675Z,101412.38
2022-10-22T20:51:21.995Z,101417.59
2022-10-22T20:53:43.820Z,101419.19
2022-10-22T20:56:06.695Z,101430.75
2022-10-22T20:58:30.670Z,101429.63
2022-10-22T21:00:52.742Z,101437.94
2022-10-22T21:03:15.324Z,101429.63
2022-10-22T21:05:37.425Z,101429.63
2022-10-22T21:07:59.249Z,101424.09
2022-10-22T21:10:21.051Z,101420.16
2022-10-22T21:12:44.036Z,101420.16
2022-10-22T21:15:10.238Z,101414.59
2022-10-22T21:17:34.362Z,101416.56
2022-10-22T21:19:56.125Z,101412.66
2022-10-22T21:22:17.954Z,101421.75
2022-10-22T21:24:39.826Z,101418.97
2022-10-22T21:27:03.939Z,101420.63
2022-10-22T21:29:25.770Z,101422.91
2022-10-22T21:31:48.083Z,101425.69
2022-10-22T21:34:09.877Z,101425.22
2022-10-22T21:36:31.743Z,101423.59
2022-10-22T21:38:55.087Z,101413.66
2022-10-22T21:41:19.100Z,101415.16
2022-10-22T21:43:43.375Z,101416.66
2022-10-22T21:46:15.866Z,101422.53
2022-10-22T21:48:40.324Z,101418.94
2022-10-22T21:51:11.831Z,101410.16
2022-10-22T21:53:34.023Z,101417.19
2022-10-22T21:55:55.771Z,101416.38
2022-10-22T21:58:17.561Z,101409.25
2022-10-22T22:00:39.382Z,101408.78
2022-10-22T22:03:01.689Z,101415.47
2022-10-22T22:05:23.703Z,101424.91
2022-10-22T22:07:45.569Z,101427.66
2022-10-22T22:10:08.141Z,101427.34
2022-10-22T22:12:29.969Z,101421.81
2022-10-22T22:14:51.771Z,101415.47
2022-10-22T22:17:15.413Z,101413.50
2022-10-22T22:19:38.916Z,101415.91
2022-10-22T22:22:00.654Z,101422.28
2022-10-22T22:24:22.438Z,101411.22
2022-10-22T22:26:44.190Z,101407.59
2022-10-22T22:29:06.090Z,101403.72
2022-10-22T22:31:32.273Z,101410.84
2022-10-22T22:34:21.492Z,101408.88
2022-10-22T22:36:47.204Z,101398.63
2022-10-22T22:39:17.219Z,101401.84
2022-10-22T22:41:39.791Z,101404.63
2022-10-22T22:44:01.922Z,101400.72
2022-10-22T22:46:23.916Z,101403.97
2022-10-22T22:48:49.654Z,101394.84
2022-10-22T22:51:11.612Z,101400.38
2022-10-22T22:53:35.244Z,101394.84
2022-10-22T22:56:20.772Z,101392.88
2022-10-22T22:58:44.429Z,101388.47
2022-10-22T23:01:28.953Z,101386.53
2022-10-22T23:04:12.902Z,101385.72
2022-10-22T23:06:37.661Z,101378.56
2022-10-22T23:09:00.300Z,101375.81
2022-10-22T23:11:25.121Z,101378.56
2022-10-22T23:13:48.274Z,101373.03
2022-10-22T23:16:18.541Z,101364.72
2022-10-22T23:18:41.096Z,101368.28
2022-10-22T23:21:11.415Z,101369.09
2022-10-22T23:23:36.328Z,101364.41
2022-10-22T23:28:24.956Z,101367.97
2022-10-22T23:30:46.765Z,101376.28
2022-10-22T23:33:08.776Z,101377.75
2022-10-22T23:35:30.567Z,101373.25
2022-10-22T23:37:52.367Z,101375.88
2022-10-22T23:40:14.288Z,101374.13
2022-10-22T23:42:36.180Z,101383.91
2022-10-22T23:44:58.231Z,101379.88
2022-10-22T23:47:20.090Z,101367.88
2022-10-22T23:49:41.809Z,101372.47
2022-10-22T23:52:03.728Z,101365.31
2022-10-22T23:54:25.616Z,101365.66
2022-10-22T23:56:47.664Z,101365.19
2022-10-22T23:59:09.654Z,101361.13
